sensor_id;sensor_type;location;lat;lon;timestamp;pressure;altitude;pressure_sealevel;temperature;humidity
77207;BME280;66190;50.708;7.906;2024-01-11T00:02:20;97467.84;;;-4.77;76.10
77207;BME280;66190;50.708;7.906;2024-01-11T00:04:46;97468.81;;;-4.78;76.66
77207;BME280;66190;50.708;7.906;2024-01-11T00:07:11;97468.72;;;-4.77;76.16
77207;BME280;66190;50.708;7.906;2024-01-11T00:09:42;97473.88;;;-4.75;76.26
77207;BME280;66190;50.708;7.906;2024-01-11T00:12:08;97468.63;;;-4.75;77.13
77207;BME280;66190;50.708;7.906;2024-01-11T00:14:33;97476.22;;;-4.71;76.69
77207;BME280;66190;50.708;7.906;2024-01-11T00:16:59;97476.22;;;-4.71;77.17
77207;BME280;66190;50.708;7.906;2024-01-11T00:19:24;97469.13;;;-4.69;77.26
77207;BME280;66190;50.708;7.906;2024-01-11T00:21:50;97476.91;;;-4.67;76.65
77207;BME280;66190;50.708;7.906;2024-01-11T00:24:15;97476.09;;;-4.68;76.89
77207;BME280;66190;50.708;7.906;2024-01-11T00:26:41;97474.28;;;-4.67;76.85
77207;BME280;66190;50.708;7.906;2024-01-11T00:29:07;97470.84;;;-4.68;76.88
77207;BME280;66190;50.708;7.906;2024-01-11T00:31:33;97470.75;;;-4.66;76.50
77207;BME280;66190;50.708;7.906;2024-01-11T00:33:58;97478.19;;;-4.74;77.06
77207;BME280;66190;50.708;7.906;2024-01-11T00:36:24;97480.81;;;-4.74;76.71
77207;BME280;66190;50.708;7.906;2024-01-11T00:38:49;97471.25;;;-4.75;76.91
77207;BME280;66190;50.708;7.906;2024-01-11T00:41:15;97473.50;;;-4.69;76.73
77207;BME280;66190;50.708;7.906;2024-01-11T00:43:40;97475.72;;;-4.77;76.55
77207;BME280;66190;50.708;7.906;2024-01-11T00:46:06;97471.84;;;-4.70;76.45
77207;BME280;66190;50.708;7.906;2024-01-11T00:48:31;97470.84;;;-4.68;77.07
77207;BME280;66190;50.708;7.906;2024-01-11T00:50:57;97469.03;;;-4.67;77.12
77207;BME280;66190;50.708;7.906;2024-01-11T00:53:22;97475.06;;;-4.65;76.71
77207;BME280;66190;50.708;7.906;2024-01-11T00:55:48;97471.41;;;-4.63;76.85
77207;BME280;66190;50.708;7.906;2024-01-11T00:58:13;97479.38;;;-4.64;76.54
77207;BME280;66190;50.708;7.906;2024-01-11T01:00:38;97478.25;;;-4.60;76.61
77207;BME280;66190;50.708;7.906;2024-01-11T01:03:04;97483.88;;;-4.66;76.20
77207;BME280;66190;50.708;7.906;2024-01-11T01:05:29;97480.66;;;-4.71;76.82
77207;BME280;66190;50.708;7.906;2024-01-11T01:07:55;97479.44;;;-4.66;76.61
77207;BME280;66190;50.708;7.906;2024-01-11T01:10:20;97477.00;;;-4.69;76.48
77207;BME280;66190;50.708;7.906;2024-01-11T01:12:45;97475.22;;;-4.68;76.08
77207;BME280;66190;50.708;7.906;2024-01-11T01:15:11;97469.22;;;-4.70;75.89
77207;BME280;66190;50.708;7.906;2024-01-11T01:17:37;97472.69;;;-4.70;75.24
77207;BME280;66190;50.708;7.906;2024-01-11T01:20:03;97476.50;;;-4.75;75.96
77207;BME280;66190;50.708;7.906;2024-01-11T01:22:29;97481.56;;;-4.72;76.07
77207;BME280;66190;50.708;7.906;2024-01-11T01:24:54;97485.06;;;-4.72;76.16
77207;BME280;66190;50.708;7.906;2024-01-11T01:27:19;97480.47;;;-4.68;77.07
77207;BME280;66190;50.708;7.906;2024-01-11T01:29:46;97474.81;;;-4.60;76.60
77207;BME280;66190;50.708;7.906;2024-01-11T01:32:11;97480.75;;;-4.57;76.69
77207;BME280;66190;50.708;7.906;2024-01-11T01:34:36;97485.03;;;-4.56;76.64
77207;BME280;66190;50.708;7.906;2024-01-11T01:37:02;97477.94;;;-4.54;76.64
77207;BME280;66190;50.708;7.906;2024-01-11T01:39:27;97487.94;;;-4.45;75.72
77207;BME280;66190;50.708;7.906;2024-01-11T01:41:53;97482.50;;;-4.42;75.60
77207;BME280;66190;50.708;7.906;2024-01-11T01:44:18;97499.34;;;-4.46;75.52
77207;BME280;66190;50.708;7.906;2024-01-11T01:46:44;97501.28;;;-4.49;75.44
77207;BME280;66190;50.708;7.906;2024-01-11T01:49:10;97494.00;;;-4.44;75.58
77207;BME280;66190;50.708;7.906;2024-01-11T01:51:37;97490.13;;;-4.53;75.94
77207;BME280;66190;50.708;7.906;2024-01-11T01:54:03;97487.75;;;-4.57;75.68
77207;BME280;66190;50.708;7.906;2024-01-11T01:56:29;97495.53;;;-4.56;76.28
77207;BME280;66190;50.708;7.906;2024-01-11T01:58:55;97495.28;;;-4.51;76.20
77207;BME280;66190;50.708;7.906;2024-01-11T02:01:20;97497.16;;;-4.53;76.09
77207;BME280;66190;50.708;7.906;2024-01-11T02:03:49;97494.59;;;-4.55;76.14
77207;BME280;66190;50.708;7.906;2024-01-11T02:06:15;97491.81;;;-4.52;75.93
77207;BME280;66190;50.708;7.906;2024-01-11T02:08:42;97497.50;;;-4.59;76.51
77207;BME280;66190;50.708;7.906;2024-01-11T02:11:10;97493.34;;;-4.64;75.96
77207;BME280;66190;50.708;7.906;2024-01-11T02:13:36;97496.81;;;-4.63;76.48
77207;BME280;66190;50.708;7.906;2024-01-11T02:16:02;97498.50;;;-4.62;76.13
77207;BME280;66190;50.708;7.906;2024-01-11T02:18:27;97488.25;;;-4.67;75.80
77207;BME280;66190;50.708;7.906;2024-01-11T02:20:53;97494.28;;;-4.65;75.35
77207;BME280;66190;50.708;7.906;2024-01-11T02:23:21;97497.31;;;-4.72;75.35
77207;BME280;66190;50.708;7.906;2024-01-11T02:25:47;97494.69;;;-4.88;75.61
77207;BME280;66190;50.708;7.906;2024-01-11T02:28:12;97498.84;;;-4.84;75.42
77207;BME280;66190;50.708;7.906;2024-01-11T02:30:38;97493.59;;;-4.84;75.12
77207;BME280;66190;50.708;7.906;2024-01-11T02:33:04;97486.63;;;-4.85;74.97
77207;BME280;66190;50.708;7.906;2024-01-11T02:35:31;97479.13;;;-4.91;75.33
77207;BME280;66190;50.708;7.906;2024-01-11T02:37:57;97476.75;;;-4.95;75.45
77207;BME280;66190;50.708;7.906;2024-01-11T02:40:25;97478.06;;;-5.04;75.95
77207;BME280;66190;50.708;7.906;2024-01-11T02:42:51;97481.63;;;-5.20;76.73
77207;BME280;66190;50.708;7.906;2024-01-11T02:45:16;97482.47;;;-5.20;76.18
77207;BME280;66190;50.708;7.906;2024-01-11T02:47:42;97478.13;;;-5.21;76.20
77207;BME280;66190;50.708;7.906;2024-01-11T02:50:07;97476.78;;;-5.28;76.45
77207;BME280;66190;50.708;7.906;2024-01-11T02:52:34;97485.16;;;-5.37;77.77
77207;BME280;66190;50.708;7.906;2024-01-11T02:54:59;97487.81;;;-5.38;77.70
77207;BME280;66190;50.708;7.906;2024-01-11T02:57:24;97478.28;;;-5.39;78.03
77207;BME280;66190;50.708;7.906;2024-01-11T02:59:51;97484.03;;;-5.33;77.78
77207;BME280;66190;50.708;7.906;2024-01-11T03:02:16;97485.16;;;-5.37;77.29
77207;BME280;66190;50.708;7.906;2024-01-11T03:04:41;97480.38;;;-5.46;78.24
77207;BME280;66190;50.708;7.906;2024-01-11T03:07:07;97481.00;;;-5.41;78.10
77207;BME280;66190;50.708;7.906;2024-01-11T03:09:32;97483.09;;;-5.47;77.86
77207;BME280;66190;50.708;7.906;2024-01-11T03:11:59;97482.25;;;-5.48;78.50
77207;BME280;66190;50.708;7.906;2024-01-11T03:14:24;97476.66;;;-5.42;78.35
77207;BME280;66190;50.708;7.906;2024-01-11T03:16:50;97476.25;;;-5.34;77.35
77207;BME280;66190;50.708;7.906;2024-01-11T03:19:15;97471.19;;;-5.37;78.28
77207;BME280;66190;50.708;7.906;2024-01-11T03:21:43;97468.31;;;-5.33;78.31
77207;BME280;66190;50.708;7.906;2024-01-11T03:24:08;97478.03;;;-5.35;78.00
77207;BME280;66190;50.708;7.906;2024-01-11T03:26:33;97471.03;;;-5.34;77.31
77207;BME280;66190;50.708;7.906;2024-01-11T03:28:59;97466.13;;;-5.40;78.44
77207;BME280;66190;50.708;7.906;2024-01-11T03:31:24;97472.09;;;-5.38;79.19
77207;BME280;66190;50.708;7.906;2024-01-11T03:33:50;97469.34;;;-5.35;78.19
77207;BME280;66190;50.708;7.906;2024-01-11T03:36:15;97470.59;;;-5.42;77.42
77207;BME280;66190;50.708;7.906;2024-01-11T03:38:40;97467.97;;;-5.42;77.82
77207;BME280;66190;50.708;7.906;2024-01-11T03:41:09;97463.63;;;-5.43;77.68
77207;BME280;66190;50.708;7.906;2024-01-11T03:43:37;97470.66;;;-5.44;77.61
77207;BME280;66190;50.708;7.906;2024-01-11T03:46:04;97471.50;;;-5.43;77.85
77207;BME280;66190;50.708;7.906;2024-01-11T03:48:30;97468.63;;;-5.54;78.93
77207;BME280;66190;50.708;7.906;2024-01-11T03:50:55;97472.53;;;-5.46;77.82
77207;BME280;66190;50.708;7.906;2024-01-11T03:53:21;97466.41;;;-5.46;77.84
77207;BME280;66190;50.708;7.906;2024-01-11T03:55:46;97463.19;;;-5.51;78.06
77207;BME280;66190;50.708;7.906;2024-01-11T03:58:11;97461.44;;;-5.68;78.52
77207;BME280;66190;50.708;7.906;2024-01-11T04:00:37;97458.44;;;-5.60;79.56
77207;BME280;66190;50.708;7.906;2024-01-11T04:03:02;97468.31;;;-5.65;77.96
77207;BME280;66190;50.708;7.906;2024-01-11T04:05:28;97471.72;;;-5.63;78.16
77207;BME280;66190;50.708;7.906;2024-01-11T04:07:53;97468.56;;;-5.70;78.33
77207;BME280;66190;50.708;7.906;2024-01-11T04:10:19;97480.38;;;-5.78;78.47
77207;BME280;66190;50.708;7.906;2024-01-11T04:12:44;97473.50;;;-5.81;79.75
77207;BME280;66190;50.708;7.906;2024-01-11T04:15:11;97483.25;;;-5.67;79.81
77207;BME280;66190;50.708;7.906;2024-01-11T04:17:38;97473.38;;;-5.62;79.46
77207;BME280;66190;50.708;7.906;2024-01-11T04:20:04;97474.94;;;-5.58;79.59
77207;BME280;66190;50.708;7.906;2024-01-11T04:22:29;97482.28;;;-5.65;79.70
77207;BME280;66190;50.708;7.906;2024-01-11T04:24:55;97483.34;;;-5.69;79.69
77207;BME280;66190;50.708;7.906;2024-01-11T04:27:20;97474.50;;;-5.66;78.34
77207;BME280;66190;50.708;7.906;2024-01-11T04:29:46;97473.38;;;-5.62;79.17
77207;BME280;66190;50.708;7.906;2024-01-11T04:32:11;97473.78;;;-5.53;79.20
77207;BME280;66190;50.708;7.906;2024-01-11T04:34:36;97479.16;;;-5.56;79.08
77207;BME280;66190;50.708;7.906;2024-01-11T04:37:02;97482.16;;;-5.46;78.97
77207;BME280;66190;50.708;7.906;2024-01-11T04:39:27;97488.16;;;-5.44;79.31
77207;BME280;66190;50.708;7.906;2024-01-11T04:41:53;97492.34;;;-5.40;79.59
77207;BME280;66190;50.708;7.906;2024-01-11T04:44:18;97485.66;;;-5.30;79.68
77207;BME280;66190;50.708;7.906;2024-01-11T04:46:43;97493.53;;;-5.30;79.36
77207;BME280;66190;50.708;7.906;2024-01-11T04:49:09;97501.16;;;-5.26;78.87
77207;BME280;66190;50.708;7.906;2024-01-11T04:51:34;97491.16;;;-5.19;78.93
77207;BME280;66190;50.708;7.906;2024-01-11T04:54:00;97489.50;;;-5.20;78.45
77207;BME280;66190;50.708;7.906;2024-01-11T04:56:26;97488.72;;;-5.22;78.54
77207;BME280;66190;50.708;7.906;2024-01-11T04:58:51;97486.19;;;-5.24;78.65
77207;BME280;66190;50.708;7.906;2024-01-11T05:01:17;97484.41;;;-5.23;78.66
77207;BME280;66190;50.708;7.906;2024-01-11T05:03:44;97488.38;;;-5.32;78.28
77207;BME280;66190;50.708;7.906;2024-01-11T05:06:21;97481.50;;;-5.34;78.50
77207;BME280;66190;50.708;7.906;2024-01-11T05:08:48;97484.47;;;-5.40;78.24
77207;BME280;66190;50.708;7.906;2024-01-11T05:11:17;97489.72;;;-5.40;78.52
77207;BME280;66190;50.708;7.906;2024-01-11T05:13:43;97488.09;;;-5.43;78.24
77207;BME280;66190;50.708;7.906;2024-01-11T05:18:43;97493.72;;;-5.50;79.29
77207;BME280;66190;50.708;7.906;2024-01-11T05:21:09;97490.19;;;-5.49;79.51
77207;BME280;66190;50.708;7.906;2024-01-11T05:23:34;97496.03;;;-5.44;79.84
77207;BME280;66190;50.708;7.906;2024-01-11T05:26:00;97489.84;;;-5.43;79.65
77207;BME280;66190;50.708;7.906;2024-01-11T05:28:26;97496.88;;;-5.44;79.98
77207;BME280;66190;50.708;7.906;2024-01-11T05:30:51;97493.16;;;-5.40;79.81
77207;BME280;66190;50.708;7.906;2024-01-11T05:33:16;97500.94;;;-5.38;80.08
77207;BME280;66190;50.708;7.906;2024-01-11T05:35:42;97490.78;;;-5.44;79.18
77207;BME280;66190;50.708;7.906;2024-01-11T05:38:07;97490.53;;;-5.40;79.43
77207;BME280;66190;50.708;7.906;2024-01-11T05:40:32;97486.22;;;-5.41;78.59
77207;BME280;66190;50.708;7.906;2024-01-11T05:42:58;97495.44;;;-5.49;78.56
77207;BME280;66190;50.708;7.906;2024-01-11T05:45:23;97497.13;;;-5.48;78.94
77207;BME280;66190;50.708;7.906;2024-01-11T05:47:48;97511.38;;;-5.54;78.84
77207;BME280;66190;50.708;7.906;2024-01-11T05:50:14;97512.50;;;-5.58;79.24
77207;BME280;66190;50.708;7.906;2024-01-11T05:52:40;97513.72;;;-5.65;79.91
77207;BME280;66190;50.708;7.906;2024-01-11T05:55:05;97510.78;;;-5.76;79.72
77207;BME280;66190;50.708;7.906;2024-01-11T05:57:30;97516.44;;;-5.66;79.30
77207;BME280;66190;50.708;7.906;2024-01-11T05:59:56;97519.56;;;-5.60;78.80
77207;BME280;66190;50.708;7.906;2024-01-11T06:02:21;97518.56;;;-5.57;78.72
77207;BME280;66190;50.708;7.906;2024-01-11T06:04:48;97538.84;;;-5.61;79.36
77207;BME280;66190;50.708;7.906;2024-01-11T06:07:14;97532.44;;;-5.55;78.72
77207;BME280;66190;50.708;7.906;2024-01-11T06:09:40;97537.59;;;-5.54;78.48
77207;BME280;66190;50.708;7.906;2024-01-11T06:12:05;97548.25;;;-5.57;78.69
77207;BME280;66190;50.708;7.906;2024-01-11T06:14:30;97542.31;;;-5.60;78.03
77207;BME280;66190;50.708;7.906;2024-01-11T06:16:56;97566.28;;;-5.68;78.29
77207;BME280;66190;50.708;7.906;2024-01-11T06:19:22;97560.22;;;-5.68;78.99
77207;BME280;66190;50.708;7.906;2024-01-11T06:21:48;97546.00;;;-5.64;79.46
77207;BME280;66190;50.708;7.906;2024-01-11T06:24:13;97554.81;;;-5.65;79.05
77207;BME280;66190;50.708;7.906;2024-01-11T06:26:39;97558.19;;;-5.63;79.26
77207;BME280;66190;50.708;7.906;2024-01-11T06:29:04;97574.84;;;-5.64;79.54
77207;BME280;66190;50.708;7.906;2024-01-11T06:31:30;97565.38;;;-5.67;79.41
77207;BME280;66190;50.708;7.906;2024-01-11T06:33:55;97570.44;;;-5.64;79.67
77207;BME280;66190;50.708;7.906;2024-01-11T06:36:21;97566.69;;;-5.58;79.65
77207;BME280;66190;50.708;7.906;2024-01-11T06:38:46;97563.81;;;-5.54;79.82
77207;BME280;66190;50.708;7.906;2024-01-11T06:41:12;97577.53;;;-5.66;79.56
77207;BME280;66190;50.708;7.906;2024-01-11T06:43:37;97567.13;;;-5.67;80.02
77207;BME280;66190;50.708;7.906;2024-01-11T06:46:06;97571.22;;;-5.62;79.48
77207;BME280;66190;50.708;7.906;2024-01-11T06:48:32;97572.16;;;-5.63;78.55
77207;BME280;66190;50.708;7.906;2024-01-11T06:50:57;97564.31;;;-5.63;78.74
77207;BME280;66190;50.708;7.906;2024-01-11T06:53:23;97576.91;;;-5.54;79.16
77207;BME280;66190;50.708;7.906;2024-01-11T06:55:48;97575.75;;;-5.48;78.76
77207;BME280;66190;50.708;7.906;2024-01-11T06:58:15;97574.44;;;-5.40;78.61
77207;BME280;66190;50.708;7.906;2024-01-11T07:00:41;97572.22;;;-5.30;79.06
77207;BME280;66190;50.708;7.906;2024-01-11T07:03:09;97584.78;;;-5.20;78.87
77207;BME280;66190;50.708;7.906;2024-01-11T07:05:36;97573.13;;;-5.14;78.96
77207;BME280;66190;50.708;7.906;2024-01-11T07:08:01;97569.16;;;-5.06;78.27
77207;BME280;66190;50.708;7.906;2024-01-11T07:10:26;97569.75;;;-5.01;77.65
77207;BME280;66190;50.708;7.906;2024-01-11T07:12:52;97562.81;;;-5.02;76.81
77207;BME280;66190;50.708;7.906;2024-01-11T07:15:17;97564.91;;;-5.08;76.63
77207;BME280;66190;50.708;7.906;2024-01-11T07:17:43;97556.75;;;-5.19;77.31
77207;BME280;66190;50.708;7.906;2024-01-11T07:20:08;97563.53;;;-5.15;77.50
77207;BME280;66190;50.708;7.906;2024-01-11T07:22:34;97558.25;;;-5.31;78.01
77207;BME280;66190;50.708;7.906;2024-01-11T07:25:00;97559.38;;;-5.19;77.99
77207;BME280;66190;50.708;7.906;2024-01-11T07:27:25;97550.66;;;-5.20;77.78
77207;BME280;66190;50.708;7.906;2024-01-11T07:29:51;97552.34;;;-5.19;76.46
77207;BME280;66190;50.708;7.906;2024-01-11T07:32:16;97549.81;;;-5.20;76.04
77207;BME280;66190;50.708;7.906;2024-01-11T07:34:41;97544.25;;;-5.14;76.10
77207;BME280;66190;50.708;7.906;2024-01-11T07:37:07;97563.84;;;-5.04;76.05
77207;BME280;66190;50.708;7.906;2024-01-11T07:39:33;97561.97;;;-5.02;74.65
77207;BME280;66190;50.708;7.906;2024-01-11T07:42:00;97562.56;;;-4.97;75.01
77207;BME280;66190;50.708;7.906;2024-01-11T07:44:26;97554.63;;;-4.96;74.50
77207;BME280;66190;50.708;7.906;2024-01-11T07:46:51;97569.50;;;-4.96;74.47
77207;BME280;66190;50.708;7.906;2024-01-11T07:49:17;97576.13;;;-4.89;74.00
77207;BME280;66190;50.708;7.906;2024-01-11T07:51:42;97586.31;;;-4.83;73.89
77207;BME280;66190;50.708;7.906;2024-01-11T07:54:07;97591.72;;;-4.71;73.52
77207;BME280;66190;50.708;7.906;2024-01-11T07:56:33;97600.41;;;-4.53;74.03
77207;BME280;66190;50.708;7.906;2024-01-11T07:58:58;97604.97;;;-4.41;73.52
77207;BME280;66190;50.708;7.906;2024-01-11T08:01:24;97606.09;;;-4.29;73.18
77207;BME280;66190;50.708;7.906;2024-01-11T08:03:50;97597.78;;;-4.22;72.93
77207;BME280;66190;50.708;7.906;2024-01-11T08:06:17;97605.25;;;-4.14;73.25
77207;BME280;66190;50.708;7.906;2024-01-11T08:08:42;97605.66;;;-4.06;71.87
77207;BME280;66190;50.708;7.906;2024-01-11T08:11:09;97614.22;;;-4.03;72.39
77207;BME280;66190;50.708;7.906;2024-01-11T08:13:34;97622.69;;;-3.98;72.22
77207;BME280;66190;50.708;7.906;2024-01-11T08:16:01;97618.88;;;-3.92;72.54
77207;BME280;66190;50.708;7.906;2024-01-11T08:18:30;97605.41;;;-3.86;72.48
77207;BME280;66190;50.708;7.906;2024-01-11T08:20:55;97602.31;;;-3.79;72.81
77207;BME280;66190;50.708;7.906;2024-01-11T08:23:21;97606.97;;;-3.68;72.85
77207;BME280;66190;50.708;7.906;2024-01-11T08:25:46;97595.16;;;-3.61;73.38
77207;BME280;66190;50.708;7.906;2024-01-11T08:28:12;97598.03;;;-3.50;73.00
77207;BME280;66190;50.708;7.906;2024-01-11T08:30:37;97597.41;;;-3.39;72.48
77207;BME280;66190;50.708;7.906;2024-01-11T08:33:03;97606.34;;;-3.28;71.88
77207;BME280;66190;50.708;7.906;2024-01-11T08:35:29;97614.16;;;-3.26;71.66
77207;BME280;66190;50.708;7.906;2024-01-11T08:37:55;97628.53;;;-3.18;71.86
77207;BME280;66190;50.708;7.906;2024-01-11T08:40:20;97619.88;;;-3.04;71.55
77207;BME280;66190;50.708;7.906;2024-01-11T08:42:46;97613.84;;;-2.92;71.51
77207;BME280;66190;50.708;7.906;2024-01-11T08:45:11;97607.66;;;-2.77;70.72
77207;BME280;66190;50.708;7.906;2024-01-11T08:47:46;97597.31;;;-2.66;70.60
77207;BME280;66190;50.708;7.906;2024-01-11T08:50:13;97600.97;;;-2.55;70.25
77207;BME280;66190;50.708;7.906;2024-01-11T08:52:38;97593.25;;;-2.44;70.47
77207;BME280;66190;50.708;7.906;2024-01-11T08:55:05;97594.38;;;-2.34;70.63
77207;BME280;66190;50.708;7.906;2024-01-11T08:57:30;97593.97;;;-2.28;70.64
77207;BME280;66190;50.708;7.906;2024-01-11T08:59:56;97600.75;;;-2.23;70.12
77207;BME280;66190;50.708;7.906;2024-01-11T09:02:21;97601.31;;;-2.18;69.67
77207;BME280;66190;50.708;7.906;2024-01-11T09:04:48;97595.47;;;-2.09;69.27
77207;BME280;66190;50.708;7.906;2024-01-11T09:07:13;97601.72;;;-1.98;68.44
77207;BME280;66190;50.708;7.906;2024-01-11T09:09:39;97599.06;;;-1.84;67.34
77207;BME280;66190;50.708;7.906;2024-01-11T09:12:05;97604.50;;;-1.73;66.74
77207;BME280;66190;50.708;7.906;2024-01-11T09:14:31;97603.69;;;-1.61;66.62
77207;BME280;66190;50.708;7.906;2024-01-11T09:16:57;97604.47;;;-1.46;65.64
77207;BME280;66190;50.708;7.906;2024-01-11T09:19:22;97602.22;;;-1.26;64.01
77207;BME280;66190;50.708;7.906;2024-01-11T09:21:48;97603.41;;;-1.04;62.42
77207;BME280;66190;50.708;7.906;2024-01-11T09:24:13;97601.31;;;-0.87;61.39
77207;BME280;66190;50.708;7.906;2024-01-11T09:26:38;97602.69;;;-0.69;60.71
77207;BME280;66190;50.708;7.906;2024-01-11T09:29:04;97608.19;;;-0.59;61.90
77207;BME280;66190;50.708;7.906;2024-01-11T09:31:29;97610.91;;;-0.48;60.63
77207;BME280;66190;50.708;7.906;2024-01-11T09:33:54;97598.44;;;-0.34;59.04
77207;BME280;66190;50.708;7.906;2024-01-11T09:36:22;97611.41;;;-0.18;58.28
77207;BME280;66190;50.708;7.906;2024-01-11T09:38:47;97612.66;;;-0.11;58.98
77207;BME280;66190;50.708;7.906;2024-01-11T09:41:14;97616.97;;;0.03;58.45
77207;BME280;66190;50.708;7.906;2024-01-11T09:43:41;97630.16;;;0.15;58.34
77207;BME280;66190;50.708;7.906;2024-01-11T09:46:07;97630.13;;;0.28;57.88
77207;BME280;66190;50.708;7.906;2024-01-11T09:48:36;97626.47;;;0.41;57.72
77207;BME280;66190;50.708;7.906;2024-01-11T09:51:03;97634.47;;;0.52;57.40
77207;BME280;66190;50.708;7.906;2024-01-11T09:53:32;97628.97;;;0.55;58.05
77207;BME280;66190;50.708;7.906;2024-01-11T09:55:58;97635.00;;;0.57;58.18
77207;BME280;66190;50.708;7.906;2024-01-11T09:58:25;97636.44;;;0.61;58.03
77207;BME280;66190;50.708;7.906;2024-01-11T10:00:55;97644.19;;;0.64;58.02
77207;BME280;66190;50.708;7.906;2024-01-11T10:03:22;97647.38;;;0.57;58.02
77207;BME280;66190;50.708;7.906;2024-01-11T10:05:49;97638.25;;;0.61;57.87
77207;BME280;66190;50.708;7.906;2024-01-11T10:08:15;97633.59;;;0.64;57.00
77207;BME280;66190;50.708;7.906;2024-01-11T10:10:41;97635.41;;;0.75;56.69
77207;BME280;66190;50.708;7.906;2024-01-11T10:13:06;97628.94;;;0.79;56.38
77207;BME280;66190;50.708;7.906;2024-01-11T10:15:31;97625.50;;;0.89;55.92
77207;BME280;66190;50.708;7.906;2024-01-11T10:17:57;97640.59;;;1.00;56.24
77207;BME280;66190;50.708;7.906;2024-01-11T10:20:23;97621.22;;;1.10;56.84
77207;BME280;66190;50.708;7.906;2024-01-11T10:22:49;97617.16;;;1.17;56.79
77207;BME280;66190;50.708;7.906;2024-01-11T10:25:15;97608.75;;;1.35;56.01
77207;BME280;66190;50.708;7.906;2024-01-11T10:27:42;97605.66;;;1.63;56.35
77207;BME280;66190;50.708;7.906;2024-01-11T10:30:09;97604.91;;;1.83;55.21
77207;BME280;66190;50.708;7.906;2024-01-11T10:32:34;97603.25;;;1.93;54.45
77207;BME280;66190;50.708;7.906;2024-01-11T10:35:03;97605.75;;;2.05;53.87
77207;BME280;66190;50.708;7.906;2024-01-11T10:37:31;97607.28;;;2.19;53.63
77207;BME280;66190;50.708;7.906;2024-01-11T10:40:04;97600.03;;;2.32;53.79
77207;BME280;66190;50.708;7.906;2024-01-11T10:42:41;97598.66;;;2.49;53.56
77207;BME280;66190;50.708;7.906;2024-01-11T10:45:16;97584.50;;;2.59;53.10
77207;BME280;66190;50.708;7.906;2024-01-11T10:47:54;97599.44;;;2.71;51.72
77207;BME280;66190;50.708;7.906;2024-01-11T10:50:22;97595.00;;;2.92;49.54
77207;BME280;66190;50.708;7.906;2024-01-11T10:53:00;97598.00;;;2.99;51.84
77207;BME280;66190;50.708;7.906;2024-01-11T10:55:31;97594.41;;;3.09;52.04
77207;BME280;66190;50.708;7.906;2024-01-11T10:57:58;97600.91;;;3.16;51.41
77207;BME280;66190;50.708;7.906;2024-01-11T11:00:25;97598.47;;;3.24;51.83
77207;BME280;66190;50.708;7.906;2024-01-11T11:02:54;97600.28;;;3.24;50.66
77207;BME280;66190;50.708;7.906;2024-01-11T11:05:21;97598.34;;;3.26;50.60
77207;BME280;66190;50.708;7.906;2024-01-11T11:07:51;97600.81;;;3.38;50.66
77207;BME280;66190;50.708;7.906;2024-01-11T11:10:18;97590.88;;;3.40;51.23
77207;BME280;66190;50.708;7.906;2024-01-11T11:12:45;97593.84;;;3.47;50.62
77207;BME280;66190;50.708;7.906;2024-01-11T11:15:12;97601.06;;;3.56;50.25
77207;BME280;66190;50.708;7.906;2024-01-11T11:17:39;97600.00;;;3.68;50.05
77207;BME280;66190;50.708;7.906;2024-01-11T11:20:06;97607.34;;;3.85;51.07
77207;BME280;66190;50.708;7.906;2024-01-11T11:22:34;97608.59;;;3.81;50.00
77207;BME280;66190;50.708;7.906;2024-01-11T11:25:04;97597.56;;;3.86;49.20
77207;BME280;66190;50.708;7.906;2024-01-11T11:27:33;97597.81;;;3.83;48.62
77207;BME280;66190;50.708;7.906;2024-01-11T11:29:58;97603.00;;;3.84;49.26
77207;BME280;66190;50.708;7.906;2024-01-11T11:32:37;97604.56;;;3.87;49.93
77207;BME280;66190;50.708;7.906;2024-01-11T11:35:06;97611.69;;;3.86;49.03
77207;BME280;66190;50.708;7.906;2024-01-11T11:37:36;97606.09;;;3.89;49.53
77207;BME280;66190;50.708;7.906;2024-01-11T11:40:01;97595.91;;;3.94;48.66
77207;BME280;66190;50.708;7.906;2024-01-11T11:42:30;97599.16;;;3.98;49.23
77207;BME280;66190;50.708;7.906;2024-01-11T11:44:55;97594.25;;;4.03;48.26
77207;BME280;66190;50.708;7.906;2024-01-11T11:47:23;97599.75;;;4.11;48.65
77207;BME280;66190;50.708;7.906;2024-01-11T11:52:35;97598.91;;;4.10;48.38
77207;BME280;66190;50.708;7.906;2024-01-11T11:55:01;97600.91;;;4.18;48.72
77207;BME280;66190;50.708;7.906;2024-01-11T11:57:27;97601.19;;;4.24;46.90
77207;BME280;66190;50.708;7.906;2024-01-11T11:59:56;97592.75;;;4.19;46.24
77207;BME280;66190;50.708;7.906;2024-01-11T12:02:23;97591.97;;;4.38;46.37
77207;BME280;66190;50.708;7.906;2024-01-11T12:04:50;97581.31;;;4.38;45.74
77207;BME280;66190;50.708;7.906;2024-01-11T12:07:15;97579.53;;;4.48;44.02
77207;BME280;66190;50.708;7.906;2024-01-11T12:09:41;97588.91;;;4.42;43.44
77207;BME280;66190;50.708;7.906;2024-01-11T12:12:07;97582.06;;;4.49;44.53
77207;BME280;66190;50.708;7.906;2024-01-11T12:14:34;97580.38;;;4.58;44.64
77207;BME280;66190;50.708;7.906;2024-01-11T12:16:59;97584.31;;;4.73;44.55
77207;BME280;66190;50.708;7.906;2024-01-11T12:19:25;97580.13;;;4.80;44.28
77207;BME280;66190;50.708;7.906;2024-01-11T12:21:50;97585.59;;;4.98;44.46
77207;BME280;66190;50.708;7.906;2024-01-11T12:24:16;97576.47;;;5.00;44.51
77207;BME280;66190;50.708;7.906;2024-01-11T12:26:43;97570.41;;;5.08;43.59
77207;BME280;66190;50.708;7.906;2024-01-11T12:29:09;97567.06;;;5.15;42.66
77207;BME280;66190;50.708;7.906;2024-01-11T12:31:35;97570.97;;;5.21;41.82
77207;BME280;66190;50.708;7.906;2024-01-11T12:34:01;97569.03;;;5.23;41.58
77207;BME280;66190;50.708;7.906;2024-01-11T12:36:28;97582.91;;;5.26;40.47
77207;BME280;66190;50.708;7.906;2024-01-11T12:38:53;97567.72;;;5.27;40.69
77207;BME280;66190;50.708;7.906;2024-01-11T12:41:21;97566.22;;;5.24;40.19
77207;BME280;66190;50.708;7.906;2024-01-11T12:43:47;97561.97;;;5.31;40.07
77207;BME280;66190;50.708;7.906;2024-01-11T12:46:12;97563.09;;;5.29;40.03
77207;BME280;66190;50.708;7.906;2024-01-11T12:48:38;97568.69;;;5.35;41.14
77207;BME280;66190;50.708;7.906;2024-01-11T12:51:04;97567.19;;;5.33;40.29
77207;BME280;66190;50.708;7.906;2024-01-11T12:53:30;97564.91;;;5.38;40.24
77207;BME280;66190;50.708;7.906;2024-01-11T12:56:06;97563.09;;;5.38;40.94
77207;BME280;66190;50.708;7.906;2024-01-11T12:58:39;97564.72;;;5.58;40.79
77207;BME280;66190;50.708;7.906;2024-01-11T13:01:05;97567.31;;;5.77;40.21
77207;BME280;66190;50.708;7.906;2024-01-11T13:03:33;97573.50;;;5.88;40.43